sensor_id;sensor_type;location;lat;lon;timestamp;pressure;altitude;pressure_sealevel;temperature;humidity
29315;BME280;16320;53.954;9.506;2023-02-12T00:00:02;103723.69;;;6.41;100.00
29315;BME280;16320;53.954;9.506;2023-02-12T00:03:07;103721.19;;;6.49;100.00
29315;BME280;16320;53.954;9.506;2023-02-12T00:06:12;103736.81;;;6.48;100.00
29315;BME280;16320;53.954;9.506;2023-02-12T00:09:19;103737.66;;;6.44;100.00
29315;BME280;16320;53.954;9.506;2023-02-12T00:12:23;103748.16;;;6.50;100.00
29315;BME280;16320;53.954;9.506;2023-02-12T00:15:27;103744.66;;;6.48;100.00
29315;BME280;16320;53.954;9.506;2023-02-12T00:18:31;103742.03;;;6.46;100.00
29315;BME280;16320;53.954;9.506;2023-02-12T00:21:36;103730.66;;;6.41;100.00
29315;BME280;16320;53.954;9.506;2023-02-12T00:24:40;103742.84;;;6.42;100.00
29315;BME280;16320;53.954;9.506;2023-02-12T00:27:45;103739.38;;;6.45;100.00
29315;BME280;16320;53.954;9.506;2023-02-12T00:30:49;103751.63;;;6.47;100.00
29315;BME280;16320;53.954;9.506;2023-02-12T00:34:00;103746.28;;;6.39;100.00
29315;BME280;16320;53.954;9.506;2023-02-12T00:37:05;103754.16;;;6.41;100.00
29315;BME280;16320;53.954;9.506;2023-02-12T00:40:10;103762.81;;;6.40;100.00
29315;BME280;16320;53.954;9.506;2023-02-12T00:43:14;103748.00;;;6.37;100.00
29315;BME280;16320;53.954;9.506;2023-02-12T00:46:20;103757.56;;;6.38;100.00
29315;BME280;16320;53.954;9.506;2023-02-12T00:49:25;103756.72;;;6.39;100.00
29315;BME280;16320;53.954;9.506;2023-02-12T00:52:29;103763.69;;;6.37;100.00
29315;BME280;16320;53.954;9.506;2023-02-12T00:55:34;103760.22;;;6.40;100.00
29315;BME280;16320;53.954;9.506;2023-02-12T00:58:38;103767.22;;;6.43;100.00
29315;BME280;16320;53.954;9.506;2023-02-12T01:01:42;103758.50;;;6.40;100.00
29315;BME280;16320;53.954;9.506;2023-02-12T01:04:47;103767.22;;;6.43;100.00
29315;BME280;16320;53.954;9.506;2023-02-12T01:07:52;103769.84;;;6.43;100.00
29315;BME280;16320;53.954;9.506;2023-02-12T01:11:02;103777.72;;;6.46;100.00
29315;BME280;16320;53.954;9.506;2023-02-12T01:14:07;103781.22;;;6.48;100.00
29315;BME280;16320;53.954;9.506;2023-02-12T01:17:11;103780.28;;;6.43;100.00
29315;BME280;16320;53.954;9.506;2023-02-12T01:20:18;103783.00;;;6.49;100.00
29315;BME280;16320;53.954;9.506;2023-02-12T01:23:23;103784.66;;;6.44;100.00
29315;BME280;16320;53.954;9.506;2023-02-12T01:26:29;103784.66;;;6.44;100.00
29315;BME280;16320;53.954;9.506;2023-02-12T01:29:34;103784.72;;;6.50;100.00
29315;BME280;16320;53.954;9.506;2023-02-12T01:32:40;103783.00;;;6.50;100.00
29315;BME280;16320;53.954;9.506;2023-02-12T01:35:44;103778.69;;;6.52;100.00
29315;BME280;16320;53.954;9.506;2023-02-12T01:38:50;103774.31;;;6.53;100.00
29315;BME280;16320;53.954;9.506;2023-02-12T01:41:55;103774.31;;;6.51;100.00
29315;BME280;16320;53.954;9.506;2023-02-12T01:48:18;103779.50;;;6.47;100.00
29315;BME280;16320;53.954;9.506;2023-02-12T01:51:23;103777.75;;;6.49;100.00
29315;BME280;16320;53.954;9.506;2023-02-12T01:54:29;103774.31;;;6.53;100.00
29315;BME280;16320;53.954;9.506;2023-02-12T01:57:41;103768.22;;;6.51;100.00
29315;BME280;16320;53.954;9.506;2023-02-12T02:00:47;103774.28;;;6.50;100.00
29315;BME280;16320;53.954;9.506;2023-02-12T02:03:58;103772.63;;;6.53;100.00
29315;BME280;16320;53.954;9.506;2023-02-12T02:07:05;103777.75;;;6.49;100.00
29315;BME280;16320;53.954;9.506;2023-02-12T02:10:12;103776.88;;;6.48;100.00
29315;BME280;16320;53.954;9.506;2023-02-12T02:13:17;103777.72;;;6.46;100.00
29315;BME280;16320;53.954;9.506;2023-02-12T02:32:11;103781.28;;;6.51;100.00
29315;BME280;16320;53.954;9.506;2023-02-12T02:35:27;103786.41;;;6.46;100.00
29315;BME280;16320;53.954;9.506;2023-02-12T02:38:52;103781.16;;;6.45;100.00
29315;BME280;16320;53.954;9.506;2023-02-12T02:42:15;103791.69;;;6.49;100.00
29315;BME280;16320;53.954;9.506;2023-02-12T02:45:49;103788.22;;;6.49;100.00
29315;BME280;16320;53.954;9.506;2023-02-12T02:49:01;103786.53;;;6.54;100.00
29315;BME280;16320;53.954;9.506;2023-02-12T02:52:10;103786.59;;;6.57;100.00
29315;BME280;16320;53.954;9.506;2023-02-12T02:55:21;103776.09;;;6.54;100.00
29315;BME280;16320;53.954;9.506;2023-02-12T02:58:35;103786.53;;;6.54;100.00
29315;BME280;16320;53.954;9.506;2023-02-12T03:01:59;103790.91;;;6.53;100.00
29315;BME280;16320;53.954;9.506;2023-02-12T03:05:14;103795.25;;;6.56;100.00
29315;BME280;16320;53.954;9.506;2023-02-12T03:08:51;103796.13;;;6.53;100.00
29315;BME280;16320;53.954;9.506;2023-02-12T03:12:08;103796.16;;;6.55;100.00
29315;BME280;16320;53.954;9.506;2023-02-12T03:15:37;103796.13;;;6.53;100.00
29315;BME280;16320;53.954;9.506;2023-02-12T03:19:05;103790.00;;;6.53;100.00
29315;BME280;16320;53.954;9.506;2023-02-12T03:22:18;103797.00;;;6.54;100.00
29315;BME280;16320;53.954;9.506;2023-02-12T03:25:40;103796.06;;;6.50;100.00
29315;BME280;16320;53.954;9.506;2023-02-12T03:28:48;103799.63;;;6.55;100.00
29315;BME280;16320;53.954;9.506;2023-02-12T03:35:41;103791.72;;;6.51;100.00
29315;BME280;16320;53.954;9.506;2023-02-12T03:38:52;103797.81;;;6.51;100.00
29315;BME280;16320;53.954;9.506;2023-02-12T03:42:45;103796.09;;;6.52;100.00
29315;BME280;16320;53.954;9.506;2023-02-12T03:46:06;103790.00;;;6.53;100.00
29315;BME280;16320;53.954;9.506;2023-02-12T03:49:28;103798.75;;;6.55;100.00
29315;BME280;16320;53.954;9.506;2023-02-12T03:52:35;103795.16;;;6.50;100.00
29315;BME280;16320;53.954;9.506;2023-02-12T03:55:44;103798.75;;;6.55;100.00
29315;BME280;16320;53.954;9.506;2023-02-12T03:58:51;103801.41;;;6.56;100.00
29315;BME280;16320;53.954;9.506;2023-02-12T04:01:58;103797.03;;;6.57;100.00
29315;BME280;16320;53.954;9.506;2023-02-12T04:05:07;103802.16;;;6.51;100.00
29315;BME280;16320;53.954;9.506;2023-02-12T04:08:12;103795.16;;;6.47;100.00
29315;BME280;16320;53.954;9.506;2023-02-12T04:18:50;103809.16;;;6.52;100.00
29315;BME280;16320;53.954;9.506;2023-02-12T04:32:48;103830.03;;;6.52;100.00
29315;BME280;16320;53.954;9.506;2023-02-12T04:36:05;103836.06;;;6.48;100.00
29315;BME280;16320;53.954;9.506;2023-02-12T04:39:19;103832.63;;;6.50;100.00
29315;BME280;16320;53.954;9.506;2023-02-12T04:42:25;103830.00;;;6.49;100.00
29315;BME280;16320;53.954;9.506;2023-02-12T04:45:32;103827.38;;;6.49;100.00
29315;BME280;16320;53.954;9.506;2023-02-12T04:49:01;103834.34;;;6.50;100.00
29315;BME280;16320;53.954;9.506;2023-02-12T04:52:06;103836.94;;;6.47;100.00
29315;BME280;16320;53.954;9.506;2023-02-12T04:55:11;103836.06;;;6.48;100.00
29315;BME280;16320;53.954;9.506;2023-02-12T04:58:17;103836.03;;;6.46;100.00
29315;BME280;16320;53.954;9.506;2023-02-12T05:01:22;103829.91;;;6.43;100.00
29315;BME280;16320;53.954;9.506;2023-02-12T05:04:26;103822.91;;;6.41;100.00
29315;BME280;16320;53.954;9.506;2023-02-12T05:07:31;103829.09;;;6.45;100.00
29315;BME280;16320;53.954;9.506;2023-02-12T05:10:35;103833.38;;;6.43;100.00
29315;BME280;16320;53.954;9.506;2023-02-12T05:13:39;103834.25;;;6.42;100.00
29315;BME280;16320;53.954;9.506;2023-02-12T05:16:45;103836.00;;;6.45;100.00
29315;BME280;16320;53.954;9.506;2023-02-12T05:19:49;103836.03;;;6.46;100.00
29315;BME280;16320;53.954;9.506;2023-02-12T05:22:54;103823.81;;;6.42;100.00
29315;BME280;16320;53.954;9.506;2023-02-12T05:26:00;103836.88;;;6.44;100.00
29315;BME280;16320;53.954;9.506;2023-02-12T05:29:05;103834.25;;;6.42;100.00
29315;BME280;16320;53.954;9.506;2023-02-12T05:32:10;103841.25;;;6.45;100.00
29315;BME280;16320;53.954;9.506;2023-02-12T05:35:14;103849.06;;;6.45;100.00
29315;BME280;16320;53.954;9.506;2023-02-12T05:38:18;103854.28;;;6.45;100.00
29315;BME280;16320;53.954;9.506;2023-02-12T05:41:24;103844.69;;;6.42;100.00
29315;BME280;16320;53.954;9.506;2023-02-12T05:44:29;103852.56;;;6.44;100.00
29315;BME280;16320;53.954;9.506;2023-02-12T05:47:33;103844.72;;;6.44;100.00
29315;BME280;16320;53.954;9.506;2023-02-12T05:50:37;103847.34;;;6.44;100.00
29315;BME280;16320;53.954;9.506;2023-02-12T05:53:42;103850.75;;;6.39;100.00
29315;BME280;16320;53.954;9.506;2023-02-12T05:56:47;103853.28;;;6.35;100.00
29315;BME280;16320;53.954;9.506;2023-02-12T05:59:51;103862.84;;;6.34;100.00
29315;BME280;16320;53.954;9.506;2023-02-12T06:02:56;103856.81;;;6.38;100.00
29315;BME280;16320;53.954;9.506;2023-02-12T06:06:00;103860.28;;;6.37;100.00
29315;BME280;16320;53.954;9.506;2023-02-12T06:09:04;103853.34;;;6.39;100.00
29315;BME280;16320;53.954;9.506;2023-02-12T06:12:09;103854.19;;;6.38;100.00
29315;BME280;16320;53.954;9.506;2023-02-12T06:15:14;103852.50;;;6.40;100.00
29315;BME280;16320;53.954;9.506;2023-02-12T06:18:18;103857.59;;;6.33;100.00
29315;BME280;16320;53.954;9.506;2023-02-12T06:21:25;103852.25;;;6.25;100.00
29315;BME280;16320;53.954;9.506;2023-02-12T06:24:30;103855.78;;;6.29;100.00
29315;BME280;16320;53.954;9.506;2023-02-12T06:27:34;103853.16;;;6.27;100.00
29315;BME280;16320;53.954;9.506;2023-02-12T06:30:39;103855.72;;;6.24;100.00
29315;BME280;16320;53.954;9.506;2023-02-12T06:33:43;103862.69;;;6.25;100.00
29315;BME280;16320;53.954;9.506;2023-02-12T06:36:48;103871.44;;;6.27;100.00
29315;BME280;16320;53.954;9.506;2023-02-12T06:39:52;103869.63;;;6.23;100.00
29315;BME280;16320;53.954;9.506;2023-02-12T06:42:56;103873.06;;;6.22;100.00
29315;BME280;16320;53.954;9.506;2023-02-12T06:46:02;103881.66;;;6.15;100.00
29315;BME280;16320;53.954;9.506;2023-02-12T06:49:09;103879.94;;;6.17;100.00
29315;BME280;16320;53.954;9.506;2023-02-12T06:52:15;103892.16;;;6.18;100.00
29315;BME280;16320;53.954;9.506;2023-02-12T06:55:20;103893.97;;;6.22;100.00
29315;BME280;16320;53.954;9.506;2023-02-12T06:58:24;103895.56;;;6.14;100.00
29315;BME280;16320;53.954;9.506;2023-02-12T07:01:28;103898.22;;;6.17;100.00
29315;BME280;16320;53.954;9.506;2023-02-12T07:04:33;103897.31;;;6.15;100.00
29315;BME280;16320;53.954;9.506;2023-02-12T07:07:37;103903.28;;;6.09;100.00
29315;BME280;16320;53.954;9.506;2023-02-12T07:10:41;103906.94;;;6.19;100.00
29315;BME280;16320;53.954;9.506;2023-02-12T07:13:46;103918.25;;;6.18;100.00
29315;BME280;16320;53.954;9.506;2023-02-12T07:16:50;103923.53;;;6.21;100.00
29315;BME280;16320;53.954;9.506;2023-02-12T07:19:54;103919.97;;;6.16;100.00
29315;BME280;16320;53.954;9.506;2023-02-12T07:22:58;103925.28;;;6.22;100.00
29315;BME280;16320;53.954;9.506;2023-02-12T07:26:11;103927.84;;;6.19;100.00
29315;BME280;16320;53.954;9.506;2023-02-12T07:29:16;103930.44;;;6.19;100.00
29315;BME280;16320;53.954;9.506;2023-02-12T07:32:20;103934.84;;;6.21;100.00
29315;BME280;16320;53.954;9.506;2023-02-12T07:35:25;103938.41;;;6.25;100.00
29315;BME280;16320;53.954;9.506;2023-02-12T07:38:30;103930.63;;;6.28;100.00
29315;BME280;16320;53.954;9.506;2023-02-12T07:41:35;103929.75;;;6.28;100.00
29315;BME280;16320;53.954;9.506;2023-02-12T07:44:39;103941.13;;;6.31;100.00
29315;BME280;16320;53.954;9.506;2023-02-12T07:47:44;103937.56;;;6.26;100.00
29315;BME280;16320;53.954;9.506;2023-02-12T07:50:48;103942.88;;;6.32;100.00
29315;BME280;16320;53.954;9.506;2023-02-12T07:53:53;103949.84;;;6.33;100.00
29315;BME280;16320;53.954;9.506;2023-02-12T07:56:59;103956.78;;;6.31;100.00
29315;BME280;16320;53.954;9.506;2023-02-12T08:00:04;103964.63;;;6.31;100.00
29315;BME280;16320;53.954;9.506;2023-02-12T08:03:09;103963.66;;;6.26;100.00
29315;BME280;16320;53.954;9.506;2023-02-12T08:06:19;103966.38;;;6.32;100.00
29315;BME280;16320;53.954;9.506;2023-02-12T08:09:26;103962.94;;;6.35;100.00
29315;BME280;16320;53.954;9.506;2023-02-12T08:12:31;103954.13;;;6.28;100.00
29315;BME280;16320;53.954;9.506;2023-02-12T08:15:36;103965.44;;;6.27;100.00
29315;BME280;16320;53.954;9.506;2023-02-12T08:18:41;103970.81;;;6.36;100.00
29315;BME280;16320;53.954;9.506;2023-02-12T08:21:48;103972.56;;;6.37;100.00
29315;BME280;16320;53.954;9.506;2023-02-12T08:24:53;103974.31;;;6.38;100.00
29315;BME280;16320;53.954;9.506;2023-02-12T08:27:57;103977.78;;;6.37;100.00
29315;BME280;16320;53.954;9.506;2023-02-12T08:31:04;103972.63;;;6.40;100.00
29315;BME280;16320;53.954;9.506;2023-02-12T08:34:20;103976.16;;;6.44;100.00
29315;BME280;16320;53.954;9.506;2023-02-12T08:37:25;103978.00;;;6.50;100.00
29315;BME280;16320;53.954;9.506;2023-02-12T08:40:29;103977.22;;;6.54;100.00
29315;BME280;16320;53.954;9.506;2023-02-12T08:43:34;103988.44;;;6.50;100.00
29315;BME280;16320;53.954;9.506;2023-02-12T08:46:47;103981.53;;;6.52;100.00
29315;BME280;16320;53.954;9.506;2023-02-12T08:49:53;103981.59;;;6.55;100.00
29315;BME280;16320;53.954;9.506;2023-02-12T08:52:58;103991.13;;;6.54;100.00
29315;BME280;16320;53.954;9.506;2023-02-12T08:56:03;103983.38;;;6.59;100.00
29315;BME280;16320;53.954;9.506;2023-02-12T08:59:09;103990.38;;;6.60;100.00
29315;BME280;16320;53.954;9.506;2023-02-12T09:02:13;103992.19;;;6.64;100.00
29315;BME280;16320;53.954;9.506;2023-02-12T09:05:18;103990.47;;;6.65;100.00
29315;BME280;16320;53.954;9.506;2023-02-12T09:08:22;103995.72;;;6.66;100.00
29315;BME280;16320;53.954;9.506;2023-02-12T09:11:28;103999.22;;;6.68;100.00
29315;BME280;16320;53.954;9.506;2023-02-12T09:14:35;104003.56;;;6.69;100.00
29315;BME280;16320;53.954;9.506;2023-02-12T09:17:39;104003.59;;;6.68;100.00
29315;BME280;16320;53.954;9.506;2023-02-12T09:20:46;104013.00;;;6.61;100.00
29315;BME280;16320;53.954;9.506;2023-02-12T09:23:51;104012.22;;;6.65;100.00
29315;BME280;16320;53.954;9.506;2023-02-12T09:26:56;104013.06;;;6.64;100.00
29315;BME280;16320;53.954;9.506;2023-02-12T09:30:01;104009.63;;;6.65;100.00
29315;BME280;16320;53.954;9.506;2023-02-12T09:33:06;104014.03;;;6.69;100.00
29315;BME280;16320;53.954;9.506;2023-02-12T09:36:14;104006.22;;;6.71;100.00
29315;BME280;16320;53.954;9.506;2023-02-12T09:39:19;104023.75;;;6.76;100.00
29315;BME280;16320;53.954;9.506;2023-02-12T09:46:13;104034.25;;;6.80;100.00
29315;BME280;16320;53.954;9.506;2023-02-12T09:53:03;104046.56;;;6.87;100.00
29315;BME280;16320;53.954;9.506;2023-02-12T09:56:13;104034.25;;;6.80;100.00
29315;BME280;16320;53.954;9.506;2023-02-12T09:59:40;104040.41;;;6.83;100.00
29315;BME280;16320;53.954;9.506;2023-02-12T10:02:52;104051.78;;;6.87;100.00
29315;BME280;16320;53.954;9.506;2023-02-12T10:06:06;104043.00;;;6.82;100.00
29315;BME280;16320;53.954;9.506;2023-02-12T10:09:32;104043.03;;;6.83;100.00
29315;BME280;16320;53.954;9.506;2023-02-12T10:16:13;104045.00;;;6.98;100.00
29315;BME280;16320;53.954;9.506;2023-02-12T10:26:18;104039.03;;;7.04;100.00
29315;BME280;16320;53.954;9.506;2023-02-12T10:29:32;104032.88;;;7.03;100.00
29315;BME280;16320;53.954;9.506;2023-02-12T10:32:39;104046.00;;;7.06;100.00
29315;BME280;16320;53.954;9.506;2023-02-12T10:35:59;104039.94;;;7.07;100.00
29315;BME280;16320;53.954;9.506;2023-02-12T10:45:28;104040.09;;;7.17;100.00
29315;BME280;16320;53.954;9.506;2023-02-12T10:48:37;104033.91;;;7.11;100.00
29315;BME280;16320;53.954;9.506;2023-02-12T10:55:29;104035.63;;;7.09;100.00
29315;BME280;16320;53.954;9.506;2023-02-12T11:05:52;104032.31;;;7.21;100.00
29315;BME280;16320;53.954;9.506;2023-02-12T11:09:02;104040.13;;;7.20;100.00
29315;BME280;16320;53.954;9.506;2023-02-12T11:12:40;104028.13;;;7.34;100.00
29315;BME280;16320;53.954;9.506;2023-02-12T11:15:57;104035.19;;;7.38;100.00
29315;BME280;16320;53.954;9.506;2023-02-12T11:19:18;104026.59;;;7.48;100.00
29315;BME280;16320;53.954;9.506;2023-02-12T11:22:23;104033.50;;;7.43;100.00
29315;BME280;16320;53.954;9.506;2023-02-12T11:25:31;104027.44;;;7.44;100.00
29315;BME280;16320;53.954;9.506;2023-02-12T11:28:36;104019.63;;;7.47;100.00
29315;BME280;16320;53.954;9.506;2023-02-12T11:31:40;104023.00;;;7.40;100.00
29315;BME280;16320;53.954;9.506;2023-02-12T11:35:14;104016.78;;;7.32;100.00
29315;BME280;16320;53.954;9.506;2023-02-12T11:38:52;104022.84;;;7.28;100.00
29315;BME280;16320;53.954;9.506;2023-02-12T11:42:05;104019.31;;;7.26;100.00
29315;BME280;16320;53.954;9.506;2023-02-12T11:45:21;104019.19;;;7.20;100.00
29315;BME280;16320;53.954;9.506;2023-02-12T11:48:36;104014.88;;;7.20;100.00
29315;BME280;16320;53.954;9.506;2023-02-12T11:51:46;104019.91;;;7.08;100.00
29315;BME280;16320;53.954;9.506;2023-02-12T11:54:58;104012.03;;;7.06;100.00
29315;BME280;16320;53.954;9.506;2023-02-12T11:58:17;104016.44;;;7.09;100.00
29315;BME280;16320;53.954;9.506;2023-02-12T12:01:29;104010.38;;;7.11;100.00
29315;BME280;16320;53.954;9.506;2023-02-12T12:04:37;104006.13;;;7.18;100.00
29315;BME280;16320;53.954;9.506;2023-02-12T12:07:50;103996.44;;;7.12;100.00
29315;BME280;16320;53.954;9.506;2023-02-12T12:11:12;103999.03;;;7.11;100.00
29315;BME280;16320;53.954;9.506;2023-02-12T12:14:48;103991.13;;;7.06;100.00
29315;BME280;16320;53.954;9.506;2023-02-12T12:18:52;103997.28;;;7.08;100.00
29315;BME280;16320;53.954;9.506;2023-02-12T12:22:49;104000.78;;;7.10;100.00
29315;BME280;16320;53.954;9.506;2023-02-12T12:25:58;103999.94;;;7.13;100.00
29315;BME280;16320;53.954;9.506;2023-02-12T12:32:52;103989.53;;;7.18;100.00
29315;BME280;16320;53.954;9.506;2023-02-12T12:40:00;103990.44;;;7.18;100.00
29315;BME280;16320;53.954;9.506;2023-02-12T12:43:23;103981.72;;;7.19;100.00
29315;BME280;16320;53.954;9.506;2023-02-12T13:05:29;103973.53;;;6.96;100.00
29315;BME280;16320;53.954;9.506;2023-02-12T13:09:18;103964.81;;;6.94;100.00
29315;BME280;16320;53.954;9.506;2023-02-12T13:12:59;103967.47;;;6.97;100.00
29315;BME280;16320;53.954;9.506;2023-02-12T13:16:30;103961.31;;;6.95;100.00
29315;BME280;16320;53.954;9.506;2023-02-12T13:20:37;103957.03;;;7.00;100.00
29315;BME280;16320;53.954;9.506;2023-02-12T13:23:58;103961.41;;;7.00;100.00
29315;BME280;16320;53.954;9.506;2023-02-12T13:27:17;103966.50;;;6.92;100.00
29315;BME280;16320;53.954;9.506;2023-02-12T13:30:36;103961.19;;;6.84;100.00
29315;BME280;16320;53.954;9.506;2023-02-12T13:33:49;103968.22;;;6.90;100.00
29315;BME280;16320;53.954;9.506;2023-02-12T13:36:59;103955.97;;;6.86;100.00
29315;BME280;16320;53.954;9.506;2023-02-12T13:40:20;103959.44;;;6.85;100.00
29315;BME280;16320;53.954;9.506;2023-02-12T13:47:11;103957.72;;;6.87;100.00
29315;BME280;16320;53.954;9.506;2023-02-12T13:57:34;103951.63;;;6.86;100.00
29315;BME280;16320;53.954;9.506;2023-02-12T14:03:55;103953.13;;;6.72;100.00
29315;BME280;16320;53.954;9.506;2023-02-12T14:07:09;103952.31;;;6.74;100.00
29315;BME280;16320;53.954;9.506;2023-02-12T14:10:41;103950.53;;;6.73;100.00
29315;BME280;16320;53.954;9.506;2023-02-12T14:13:59;103946.94;;;6.67;100.00
29315;BME280;16320;53.954;9.506;2023-02-12T14:20:38;103936.53;;;6.68;100.00
29315;BME280;16320;53.954;9.506;2023-02-12T14:23:45;103940.06;;;6.72;100.00
29315;BME280;16320;53.954;9.506;2023-02-12T14:26:50;103930.44;;;6.71;100.00
29315;BME280;16320;53.954;9.506;2023-02-12T14:30:31;103932.16;;;6.69;100.00
29315;BME280;16320;53.954;9.506;2023-02-12T14:33:36;103942.63;;;6.69;100.00
29315;BME280;16320;53.954;9.506;2023-02-12T14:36:43;103935.69;;;6.72;100.00
29315;BME280;16320;53.954;9.506;2023-02-12T14:39:49;103947.75;;;6.64;100.00
29315;BME280;16320;53.954;9.506;2023-02-12T14:42:56;103945.09;;;6.61;100.00
29315;BME280;16320;53.954;9.506;2023-02-12T14:49:47;103951.09;;;6.54;100.00
29315;BME280;16320;53.954;9.506;2023-02-12T14:53:25;103951.94;;;6.53;100.00
29315;BME280;16320;53.954;9.506;2023-02-12T14:56:40;103947.63;;;6.55;100.00
29315;BME280;16320;53.954;9.506;2023-02-12T14:59:49;103956.34;;;6.55;100.00
29315;BME280;16320;53.954;9.506;2023-02-12T15:06:21;103953.69;;;6.54;100.00
29315;BME280;16320;53.954;9.506;2023-02-12T15:10:02;103957.16;;;6.53;100.00
29315;BME280;16320;53.954;9.506;2023-02-12T15:17:17;103962.34;;;6.51;100.00
29315;BME280;16320;53.954;9.506;2023-02-12T15:20:28;103962.47;;;6.57;100.00
29315;BME280;16320;53.954;9.506;2023-02-12T15:23:42;103962.38;;;6.53;100.00
29315;BME280;16320;53.954;9.506;2023-02-12T15:26:51;103959.75;;;6.51;100.00
29315;BME280;16320;53.954;9.506;2023-02-12T15:29:57;103962.31;;;6.50;100.00
29315;BME280;16320;53.954;9.506;2023-02-12T15:33:05;103962.28;;;6.47;100.00
29315;BME280;16320;53.954;9.506;2023-02-12T15:36:20;103963.16;;;6.47;100.00
29315;BME280;16320;53.954;9.506;2023-02-12T15:39:26;103974.47;;;6.48;100.00
29315;BME280;16320;53.954;9.506;2023-02-12T15:42:35;103978.88;;;6.49;100.00
29315;BME280;16320;53.954;9.506;2023-02-12T15:45:51;103981.38;;;6.43;100.00
29315;BME280;16320;53.954;9.506;2023-02-12T15:48:55;103978.84;;;6.47;100.00
29315;BME280;16320;53.954;9.506;2023-02-12T15:52:23;103972.75;;;6.47;100.00
29315;BME280;16320;53.954;9.506;2023-02-12T15:55:41;103984.00;;;6.44;100.00
29315;BME280;16320;53.954;9.506;2023-02-12T15:58:51;103987.53;;;6.48;100.00
29315;BME280;16320;53.954;9.506;2023-02-12T16:02:00;103977.84;;;6.40;100.00
29315;BME280;16320;53.954;9.506;2023-02-12T16:05:09;103979.66;;;6.45;100.00
29315;BME280;16320;53.954;9.506;2023-02-12T16:08:20;103976.94;;;6.40;100.00
29315;BME280;16320;53.954;9.506;2023-02-12T16:11:25;103990.06;;;6.43;100.00
29315;BME280;16320;53.954;9.506;2023-02-12T16:14:50;103983.00;;;6.37;100.00
29315;BME280;16320;53.954;9.506;2023-02-12T16:17:57;103983.00;;;6.37;100.00
29315;BME280;16320;53.954;9.506;2023-02-12T16:21:16;103989.03;;;6.35;100.00
29315;BME280;16320;53.954;9.506;2023-02-12T16:24:37;103990.88;;;6.39;100.00
29315;BME280;16320;53.954;9.506;2023-02-12T16:31:11;103998.75;;;6.40;100.00
29315;BME280;16320;53.954;9.506;2023-02-12T16:34:36;103989.13;;;6.39;100.00
29315;BME280;16320;53.954;9.506;2023-02-12T16:41:52;104001.28;;;6.37;100.00
29315;BME280;16320;53.954;9.506;2023-02-12T16:44:58;103992.50;;;6.32;100.00
29315;BME280;16320;53.954;9.506;2023-02-12T16:51:30;103998.59;;;6.33;100.00
29315;BME280;16320;53.954;9.506;2023-02-12T16:54:35;104002.06;;;6.33;100.00
29315;BME280;16320;53.954;9.506;2023-02-12T16:57:39;103997.78;;;6.35;100.00
29315;BME280;16320;53.954;9.506;2023-02-12T17:00:44;104003.78;;;6.31;100.00
29315;BME280;16320;53.954;9.506;2023-02-12T17:03:48;103995.06;;;6.29;100.00
29315;BME280;16320;53.954;9.506;2023-02-12T17:06:54;103998.50;;;6.28;100.00
29315;BME280;16320;53.954;9.506;2023-02-12T17:09:59;104003.84;;;6.34;100.00
29315;BME280;16320;53.954;9.506;2023-02-12T17:13:04;104002.06;;;6.33;100.00
29315;BME280;16320;53.954;9.506;2023-02-12T17:16:08;103996.84;;;6.33;100.00
29315;BME280;16320;53.954;9.506;2023-02-12T17:19:16;103999.38;;;6.29;100.00
29315;BME280;16320;53.954;9.506;2023-02-12T17:22:23;103991.53;;;6.27;100.00
29315;BME280;16320;53.954;9.506;2023-02-12T17:25:31;103992.34;;;6.25;100.00
29315;BME280;16320;53.954;9.506;2023-02-12T17:28:38;103997.63;;;6.28;100.00
29315;BME280;16320;53.954;9.506;2023-02-12T17:31:45;104003.66;;;6.25;100.00
29315;BME280;16320;53.954;9.506;2023-02-12T17:34:50;104011.59;;;6.30;100.00
29315;BME280;16320;53.954;9.506;2023-02-12T17:37:54;104006.44;;;6.33;100.00
29315;BME280;16320;53.954;9.506;2023-02-12T17:40:58;104010.66;;;6.26;100.00
29315;BME280;16320;53.954;9.506;2023-02-12T17:44:03;104007.16;;;6.24;100.00
29315;BME280;16320;53.954;9.506;2023-02-12T17:47:08;104015.81;;;6.23;100.00
29315;BME280;16320;53.954;9.506;2023-02-12T17:50:14;104021.13;;;6.28;100.00
29315;BME280;16320;53.954;9.506;2023-02-12T17:53:20;104022.78;;;6.22;100.00
29315;BME280;16320;53.954;9.506;2023-02-12T17:56:25;104029.69;;;6.20;100.00
29315;BME280;16320;53.954;9.506;2023-02-12T17:59:29;104021.81;;;6.19;100.00
29315;BME280;16320;53.954;9.506;2023-02-12T18:02:33;104024.47;;;6.22;100.00
29315;BME280;16320;53.954;9.506;2023-02-12T18:05:41;104026.25;;;6.23;100.00
29315;BME280;16320;53.954;9.506;2023-02-12T18:08:46;104026.13;;;6.17;100.00
29315;BME280;16320;53.954;9.506;2023-02-12T18:11:50;104025.28;;;6.18;100.00
29315;BME280;16320;53.954;9.506;2023-02-12T18:15:06;104029.66;;;6.19;100.00
29315;BME280;16320;53.954;9.506;2023-02-12T18:18:10;104036.63;;;6.20;100.00
29315;BME280;16320;53.954;9.506;2023-02-12T18:21:16;104039.25;;;6.20;100.00
29315;BME280;16320;53.954;9.506;2023-02-12T18:24:20;104038.34;;;6.18;100.00
29315;BME280;16320;53.954;9.506;2023-02-12T18:27:25;104041.84;;;6.20;100.00
29315;BME280;16320;53.954;9.506;2023-02-12T18:30:29;104040.06;;;6.16;100.00
29315;BME280;16320;53.954;9.506;2023-02-12T18:33:35;104034.88;;;6.19;100.00
29315;BME280;16320;53.954;9.506;2023-02-12T18:36:40;104039.19;;;6.17;100.00
29315;BME280;16320;53.954;9.506;2023-02-12T18:39:44;104033.06;;;6.15;100.00
29315;BME280;16320;53.954;9.506;2023-02-12T18:42:49;104037.47;;;6.17;100.00
29315;BME280;16320;53.954;9.506;2023-02-12T18:45:53;104033.06;;;6.15;100.00
29315;BME280;16320;53.954;9.506;2023-02-12T18:48:58;104032.19;;;6.14;100.00
29315;BME280;16320;53.954;9.506;2023-02-12T18:52:04;104034.88;;;6.17;100.00
29315;BME280;16320;53.954;9.506;2023-02-12T18:55:08;104029.63;;;6.16;100.00